sensor_id;sensor_type;location;lat;lon;timestamp;temperature;humidity
23114;DHT22;11726;50.122;8.832;2023-04-01T00:01:09;11.10;99.90
23114;DHT22;11726;50.122;8.832;2023-04-01T00:03:36;11.20;99.90
23114;DHT22;11726;50.122;8.832;2023-04-01T00:06:03;11.10;99.90
23114;DHT22;11726;50.122;8.832;2023-04-01T00:08:30;11.20;99.90
23114;DHT22;11726;50.122;8.832;2023-04-01T00:10:56;11.10;99.90
23114;DHT22;11726;50.122;8.832;2023-04-01T00:13:24;11.10;99.90
23114;DHT22;11726;50.122;8.832;2023-04-01T00:15:53;11.10;99.90
23114;DHT22;11726;50.122;8.832;2023-04-01T00:18:20;11.10;99.90
23114;DHT22;11726;50.122;8.832;2023-04-01T00:20:51;11.10;99.90
23114;DHT22;11726;50.122;8.832;2023-04-01T00:23:19;11.10;99.90
23114;DHT22;11726;50.122;8.832;2023-04-01T00:25:46;11.10;99.90
23114;DHT22;11726;50.122;8.832;2023-04-01T00:28:15;11.20;99.90
23114;DHT22;11726;50.122;8.832;2023-04-01T00:30:42;11.20;99.90
23114;DHT22;11726;50.122;8.832;2023-04-01T00:33:09;11.10;99.90
23114;DHT22;11726;50.122;8.832;2023-04-01T00:35:35;11.10;99.90
23114;DHT22;11726;50.122;8.832;2023-04-01T00:38:03;11.10;99.90
23114;DHT22;11726;50.122;8.832;2023-04-01T00:40:35;11.10;99.90
23114;DHT22;11726;50.122;8.832;2023-04-01T00:43:05;11.10;99.90
23114;DHT22;11726;50.122;8.832;2023-04-01T00:45:41;11.00;99.90
23114;DHT22;11726;50.122;8.832;2023-04-01T00:48:19;11.00;99.90
23114;DHT22;11726;50.122;8.832;2023-04-01T00:50:53;11.10;99.90
23114;DHT22;11726;50.122;8.832;2023-04-01T00:53:22;11.10;99.90
23114;DHT22;11726;50.122;8.832;2023-04-01T00:56:05;11.10;99.90
23114;DHT22;11726;50.122;8.832;2023-04-01T00:58:37;11.10;99.90
23114;DHT22;11726;50.122;8.832;2023-04-01T01:01:06;11.10;99.90
23114;DHT22;11726;50.122;8.832;2023-04-01T01:03:34;11.00;99.90
23114;DHT22;11726;50.122;8.832;2023-04-01T01:06:08;11.00;99.90
23114;DHT22;11726;50.122;8.832;2023-04-01T01:11:47;11.00;99.90
23114;DHT22;11726;50.122;8.832;2023-04-01T01:14:33;11.00;99.90
23114;DHT22;11726;50.122;8.832;2023-04-01T01:17:37;11.00;99.90
23114;DHT22;11726;50.122;8.832;2023-04-01T01:20:32;11.00;99.90
23114;DHT22;11726;50.122;8.832;2023-04-01T01:34:50;11.00;99.90
23114;DHT22;11726;50.122;8.832;2023-04-01T01:37:23;11.00;99.90
23114;DHT22;11726;50.122;8.832;2023-04-01T01:39:56;11.10;99.90
23114;DHT22;11726;50.122;8.832;2023-04-01T01:42:26;11.00;99.90
23114;DHT22;11726;50.122;8.832;2023-04-01T01:44:54;11.00;99.90
23114;DHT22;11726;50.122;8.832;2023-04-01T01:47:23;11.10;99.90
23114;DHT22;11726;50.122;8.832;2023-04-01T01:49:53;11.00;99.90
23114;DHT22;11726;50.122;8.832;2023-04-01T01:52:24;11.00;99.90
23114;DHT22;11726;50.122;8.832;2023-04-01T01:54:55;11.00;99.90
23114;DHT22;11726;50.122;8.832;2023-04-01T01:57:31;11.00;99.90
23114;DHT22;11726;50.122;8.832;2023-04-01T02:00:06;11.10;99.90
23114;DHT22;11726;50.122;8.832;2023-04-01T02:02:42;11.00;99.90
23114;DHT22;11726;50.122;8.832;2023-04-01T02:05:16;11.10;99.90
23114;DHT22;11726;50.122;8.832;2023-04-01T02:07:48;11.10;99.90
23114;DHT22;11726;50.122;8.832;2023-04-01T02:10:16;11.10;99.90
23114;DHT22;11726;50.122;8.832;2023-04-01T02:12:45;11.10;99.90
23114;DHT22;11726;50.122;8.832;2023-04-01T02:15:14;11.00;99.90
23114;DHT22;11726;50.122;8.832;2023-04-01T02:17:46;11.00;99.90
23114;DHT22;11726;50.122;8.832;2023-04-01T02:20:20;11.00;99.90
23114;DHT22;11726;50.122;8.832;2023-04-01T02:22:50;11.00;99.90
23114;DHT22;11726;50.122;8.832;2023-04-01T02:25:30;11.00;99.90
23114;DHT22;11726;50.122;8.832;2023-04-01T02:28:00;11.00;99.90
23114;DHT22;11726;50.122;8.832;2023-04-01T02:30:29;11.10;99.90
23114;DHT22;11726;50.122;8.832;2023-04-01T02:32:58;11.00;99.90
23114;DHT22;11726;50.122;8.832;2023-04-01T02:35:25;11.00;99.90
23114;DHT22;11726;50.122;8.832;2023-04-01T02:37:53;11.00;99.90
23114;DHT22;11726;50.122;8.832;2023-04-01T02:40:20;11.00;99.90
23114;DHT22;11726;50.122;8.832;2023-04-01T02:42:47;11.00;99.90
23114;DHT22;11726;50.122;8.832;2023-04-01T02:45:14;11.10;99.90
23114;DHT22;11726;50.122;8.832;2023-04-01T02:47:41;11.00;99.90
23114;DHT22;11726;50.122;8.832;2023-04-01T02:50:08;11.00;99.90
23114;DHT22;11726;50.122;8.832;2023-04-01T02:52:36;11.00;99.90
23114;DHT22;11726;50.122;8.832;2023-04-01T02:55:04;11.00;99.90
23114;DHT22;11726;50.122;8.832;2023-04-01T02:57:30;10.90;99.90
23114;DHT22;11726;50.122;8.832;2023-04-01T02:59:57;10.90;99.90
23114;DHT22;11726;50.122;8.832;2023-04-01T03:02:24;10.90;99.90
23114;DHT22;11726;50.122;8.832;2023-04-01T03:04:51;10.90;99.90
23114;DHT22;11726;50.122;8.832;2023-04-01T03:07:17;10.90;99.90
23114;DHT22;11726;50.122;8.832;2023-04-01T03:09:44;10.90;99.90
23114;DHT22;11726;50.122;8.832;2023-04-01T03:12:10;10.90;99.90
23114;DHT22;11726;50.122;8.832;2023-04-01T03:14:37;10.90;99.90
23114;DHT22;11726;50.122;8.832;2023-04-01T03:17:04;10.80;99.90
23114;DHT22;11726;50.122;8.832;2023-04-01T03:19:31;10.80;99.90
23114;DHT22;11726;50.122;8.832;2023-04-01T03:21:58;10.80;99.90
23114;DHT22;11726;50.122;8.832;2023-04-01T03:24:24;10.70;99.90
23114;DHT22;11726;50.122;8.832;2023-04-01T03:26:51;10.70;99.90
23114;DHT22;11726;50.122;8.832;2023-04-01T03:29:18;10.70;99.90
23114;DHT22;11726;50.122;8.832;2023-04-01T03:31:44;10.70;99.90
23114;DHT22;11726;50.122;8.832;2023-04-01T03:34:11;10.70;99.90
23114;DHT22;11726;50.122;8.832;2023-04-01T03:36:38;10.70;99.90
23114;DHT22;11726;50.122;8.832;2023-04-01T03:39:04;10.70;99.90
23114;DHT22;11726;50.122;8.832;2023-04-01T03:41:32;10.70;99.90
23114;DHT22;11726;50.122;8.832;2023-04-01T03:43:58;10.70;99.90
23114;DHT22;11726;50.122;8.832;2023-04-01T03:46:25;10.60;99.90
23114;DHT22;11726;50.122;8.832;2023-04-01T03:48:52;10.60;99.90
23114;DHT22;11726;50.122;8.832;2023-04-01T03:51:18;10.60;99.90
23114;DHT22;11726;50.122;8.832;2023-04-01T03:53:45;10.60;99.90
23114;DHT22;11726;50.122;8.832;2023-04-01T03:56:12;10.50;99.90
23114;DHT22;11726;50.122;8.832;2023-04-01T03:58:39;10.50;99.90
23114;DHT22;11726;50.122;8.832;2023-04-01T04:01:20;10.50;99.90
23114;DHT22;11726;50.122;8.832;2023-04-01T04:03:48;10.50;99.90
23114;DHT22;11726;50.122;8.832;2023-04-01T04:06:17;10.50;99.90
23114;DHT22;11726;50.122;8.832;2023-04-01T04:08:44;10.50;99.90
23114;DHT22;11726;50.122;8.832;2023-04-01T04:11:11;10.50;99.90
23114;DHT22;11726;50.122;8.832;2023-04-01T04:13:38;10.60;99.90
23114;DHT22;11726;50.122;8.832;2023-04-01T04:16:05;10.60;99.90
23114;DHT22;11726;50.122;8.832;2023-04-01T04:18:32;10.60;99.90
23114;DHT22;11726;50.122;8.832;2023-04-01T04:20:58;10.60;99.90
23114;DHT22;11726;50.122;8.832;2023-04-01T04:23:25;10.50;99.90
23114;DHT22;11726;50.122;8.832;2023-04-01T04:26:04;10.60;99.90
23114;DHT22;11726;50.122;8.832;2023-04-01T04:28:31;10.60;99.90
23114;DHT22;11726;50.122;8.832;2023-04-01T04:30:58;10.60;99.90
23114;DHT22;11726;50.122;8.832;2023-04-01T04:33:25;10.60;99.90
23114;DHT22;11726;50.122;8.832;2023-04-01T04:35:55;10.70;99.90
23114;DHT22;11726;50.122;8.832;2023-04-01T04:38:23;10.70;99.90
23114;DHT22;11726;50.122;8.832;2023-04-01T04:40:49;10.70;99.90
23114;DHT22;11726;50.122;8.832;2023-04-01T04:43:17;10.60;99.90
23114;DHT22;11726;50.122;8.832;2023-04-01T04:45:44;10.60;99.90
23114;DHT22;11726;50.122;8.832;2023-04-01T04:48:13;10.60;99.90
23114;DHT22;11726;50.122;8.832;2023-04-01T04:50:48;10.60;99.90
23114;DHT22;11726;50.122;8.832;2023-04-01T04:53:17;10.60;99.90
23114;DHT22;11726;50.122;8.832;2023-04-01T04:55:48;10.60;99.90
23114;DHT22;11726;50.122;8.832;2023-04-01T04:58:16;10.60;99.90
23114;DHT22;11726;50.122;8.832;2023-04-01T05:00:43;10.70;99.90
23114;DHT22;11726;50.122;8.832;2023-04-01T05:03:10;10.60;99.90
23114;DHT22;11726;50.122;8.832;2023-04-01T05:05:38;10.50;99.90
23114;DHT22;11726;50.122;8.832;2023-04-01T05:08:05;10.50;99.90
23114;DHT22;11726;50.122;8.832;2023-04-01T05:10:32;10.60;99.90
23114;DHT22;11726;50.122;8.832;2023-04-01T05:12:59;10.60;99.90
23114;DHT22;11726;50.122;8.832;2023-04-01T05:15:25;10.50;99.90
23114;DHT22;11726;50.122;8.832;2023-04-01T05:17:52;10.60;99.90
23114;DHT22;11726;50.122;8.832;2023-04-01T05:20:19;10.60;99.90
23114;DHT22;11726;50.122;8.832;2023-04-01T05:22:45;10.50;99.90
23114;DHT22;11726;50.122;8.832;2023-04-01T05:25:12;10.50;99.90
23114;DHT22;11726;50.122;8.832;2023-04-01T05:27:39;10.50;99.90
23114;DHT22;11726;50.122;8.832;2023-04-01T05:30:06;10.50;99.90
23114;DHT22;11726;50.122;8.832;2023-04-01T05:32:33;10.50;99.90
23114;DHT22;11726;50.122;8.832;2023-04-01T05:34:59;10.60;99.90
23114;DHT22;11726;50.122;8.832;2023-04-01T05:37:26;10.70;99.90
23114;DHT22;11726;50.122;8.832;2023-04-01T05:39:53;10.70;99.90
23114;DHT22;11726;50.122;8.832;2023-04-01T05:42:19;10.70;99.90
23114;DHT22;11726;50.122;8.832;2023-04-01T05:44:46;10.70;99.90
23114;DHT22;11726;50.122;8.832;2023-04-01T05:47:12;10.70;99.90
23114;DHT22;11726;50.122;8.832;2023-04-01T05:49:39;10.70;99.90
23114;DHT22;11726;50.122;8.832;2023-04-01T05:52:05;10.70;99.90
23114;DHT22;11726;50.122;8.832;2023-04-01T05:54:33;10.70;99.90
23114;DHT22;11726;50.122;8.832;2023-04-01T05:56:59;10.70;99.90
23114;DHT22;11726;50.122;8.832;2023-04-01T05:59:26;10.70;99.90
23114;DHT22;11726;50.122;8.832;2023-04-01T06:01:53;10.70;99.90
23114;DHT22;11726;50.122;8.832;2023-04-01T06:04:19;10.60;99.90
23114;DHT22;11726;50.122;8.832;2023-04-01T06:06:46;10.60;99.90
23114;DHT22;11726;50.122;8.832;2023-04-01T06:09:18;10.50;99.90
23114;DHT22;11726;50.122;8.832;2023-04-01T06:17:54;10.40;99.90
23114;DHT22;11726;50.122;8.832;2023-04-01T06:23:18;10.30;99.90
23114;DHT22;11726;50.122;8.832;2023-04-01T06:26:00;10.40;99.90
23114;DHT22;11726;50.122;8.832;2023-04-01T06:31:48;10.30;99.90
23114;DHT22;11726;50.122;8.832;2023-04-01T06:37:03;10.30;99.90
23114;DHT22;11726;50.122;8.832;2023-04-01T06:40:36;10.30;99.90
23114;DHT22;11726;50.122;8.832;2023-04-01T06:42:55;10.30;99.90
23114;DHT22;11726;50.122;8.832;2023-04-01T06:48:18;10.30;99.90
23114;DHT22;11726;50.122;8.832;2023-04-01T06:54:09;10.30;99.90
23114;DHT22;11726;50.122;8.832;2023-04-01T06:56:41;10.30;99.90
23114;DHT22;11726;50.122;8.832;2023-04-01T06:59:17;10.50;99.90
23114;DHT22;11726;50.122;8.832;2023-04-01T07:01:52;10.50;99.90
23114;DHT22;11726;50.122;8.832;2023-04-01T07:04:35;10.50;99.90
23114;DHT22;11726;50.122;8.832;2023-04-01T07:07:15;10.50;99.90
23114;DHT22;11726;50.122;8.832;2023-04-01T07:09:51;10.50;99.90
23114;DHT22;11726;50.122;8.832;2023-04-01T07:15:04;10.60;99.90
23114;DHT22;11726;50.122;8.832;2023-04-01T07:17:36;10.50;99.90
23114;DHT22;11726;50.122;8.832;2023-04-01T07:22:45;10.70;99.90
23114;DHT22;11726;50.122;8.832;2023-04-01T07:27:43;10.70;99.90
23114;DHT22;11726;50.122;8.832;2023-04-01T07:30:21;10.70;99.90
23114;DHT22;11726;50.122;8.832;2023-04-01T07:32:54;10.70;99.90
23114;DHT22;11726;50.122;8.832;2023-04-01T07:35:33;10.80;99.90
23114;DHT22;11726;50.122;8.832;2023-04-01T07:38:15;10.70;99.90
23114;DHT22;11726;50.122;8.832;2023-04-01T07:40:58;10.80;99.90
23114;DHT22;11726;50.122;8.832;2023-04-01T07:43:54;10.80;99.90
23114;DHT22;11726;50.122;8.832;2023-04-01T07:49:37;10.90;99.90
23114;DHT22;11726;50.122;8.832;2023-04-01T07:52:26;10.90;99.90
23114;DHT22;11726;50.122;8.832;2023-04-01T08:00:41;11.00;99.90
23114;DHT22;11726;50.122;8.832;2023-04-01T08:09:02;11.00;99.90
23114;DHT22;11726;50.122;8.832;2023-04-01T08:11:41;11.00;99.90
23114;DHT22;11726;50.122;8.832;2023-04-01T08:16:55;11.00;99.90
23114;DHT22;11726;50.122;8.832;2023-04-01T08:21:57;10.90;99.90
23114;DHT22;11726;50.122;8.832;2023-04-01T08:24:42;10.90;99.90
23114;DHT22;11726;50.122;8.832;2023-04-01T08:27:31;10.90;99.90
23114;DHT22;11726;50.122;8.832;2023-04-01T08:32:41;11.10;99.90
23114;DHT22;11726;50.122;8.832;2023-04-01T08:38:05;11.00;99.90
23114;DHT22;11726;50.122;8.832;2023-04-01T08:40:55;11.10;99.90
23114;DHT22;11726;50.122;8.832;2023-04-01T08:55:12;11.00;99.90
23114;DHT22;11726;50.122;8.832;2023-04-01T09:03:26;11.10;99.90
23114;DHT22;11726;50.122;8.832;2023-04-01T09:08:48;11.10;99.90
23114;DHT22;11726;50.122;8.832;2023-04-01T09:14:39;11.20;99.90
23114;DHT22;11726;50.122;8.832;2023-04-01T09:19:50;11.20;99.90
23114;DHT22;11726;50.122;8.832;2023-04-01T09:25:45;11.10;99.90
23114;DHT22;11726;50.122;8.832;2023-04-01T09:28:25;11.30;99.90
23114;DHT22;11726;50.122;8.832;2023-04-01T09:31:16;11.20;99.90
23114;DHT22;11726;50.122;8.832;2023-04-01T09:34:01;11.10;99.90
23114;DHT22;11726;50.122;8.832;2023-04-01T09:36:55;11.20;99.90
23114;DHT22;11726;50.122;8.832;2023-04-01T09:52:48;11.50;99.90
23114;DHT22;11726;50.122;8.832;2023-04-01T09:56:09;11.60;99.90
23114;DHT22;11726;50.122;8.832;2023-04-01T09:59:32;11.60;99.90
23114;DHT22;11726;50.122;8.832;2023-04-01T10:02:10;11.80;99.90
23114;DHT22;11726;50.122;8.832;2023-04-01T10:10:35;11.70;99.90
23114;DHT22;11726;50.122;8.832;2023-04-01T10:13:17;11.70;99.90
23114;DHT22;11726;50.122;8.832;2023-04-01T10:39:10;11.90;99.90
23114;DHT22;11726;50.122;8.832;2023-04-01T10:41:51;12.00;99.90
23114;DHT22;11726;50.122;8.832;2023-04-01T10:47:54;11.90;99.90
23114;DHT22;11726;50.122;8.832;2023-04-01T10:56:15;11.80;99.90
23114;DHT22;11726;50.122;8.832;2023-04-01T11:02:22;12.10;99.90
23114;DHT22;11726;50.122;8.832;2023-04-01T11:08:08;12.20;99.90
23114;DHT22;11726;50.122;8.832;2023-04-01T11:16:47;12.20;99.90
23114;DHT22;11726;50.122;8.832;2023-04-01T11:27:53;12.40;99.90
23114;DHT22;11726;50.122;8.832;2023-04-01T11:39:11;12.50;99.90
23114;DHT22;11726;50.122;8.832;2023-04-01T11:44:39;12.50;99.90
23114;DHT22;11726;50.122;8.832;2023-04-01T12:01:20;12.80;99.90
23114;DHT22;11726;50.122;8.832;2023-04-01T12:04:24;12.80;99.90
23114;DHT22;11726;50.122;8.832;2023-04-01T12:07:22;12.80;99.90
23114;DHT22;11726;50.122;8.832;2023-04-01T12:10:16;12.70;99.90
23114;DHT22;11726;50.122;8.832;2023-04-01T12:12:49;12.70;99.90
23114;DHT22;11726;50.122;8.832;2023-04-01T12:32:46;12.40;99.90
23114;DHT22;11726;50.122;8.832;2023-04-01T12:35:41;12.40;99.90
23114;DHT22;11726;50.122;8.832;2023-04-01T12:38:31;12.40;99.90
23114;DHT22;11726;50.122;8.832;2023-04-01T12:41:22;12.10;99.90
23114;DHT22;11726;50.122;8.832;2023-04-01T12:44:16;12.10;99.90
23114;DHT22;11726;50.122;8.832;2023-04-01T12:46:56;12.10;99.90
23114;DHT22;11726;50.122;8.832;2023-04-01T12:55:35;12.00;99.90
23114;DHT22;11726;50.122;8.832;2023-04-01T12:58:30;12.00;99.90
23114;DHT22;11726;50.122;8.832;2023-04-01T13:01:08;12.00;99.90
23114;DHT22;11726;50.122;8.832;2023-04-01T13:09:29;12.20;99.90
23114;DHT22;11726;50.122;8.832;2023-04-01T13:15:25;12.30;99.90
23114;DHT22;11726;50.122;8.832;2023-04-01T13:20:49;12.20;99.90
23114;DHT22;11726;50.122;8.832;2023-04-01T13:34:52;12.50;99.90
23114;DHT22;11726;50.122;8.832;2023-04-01T13:40:43;12.70;99.90
23114;DHT22;11726;50.122;8.832;2023-04-01T13:43:34;12.80;99.90
23114;DHT22;11726;50.122;8.832;2023-04-01T13:48:52;13.00;99.90
23114;DHT22;11726;50.122;8.832;2023-04-01T13:54:56;13.10;99.90
23114;DHT22;11726;50.122;8.832;2023-04-01T13:57:40;13.20;99.90
23114;DHT22;11726;50.122;8.832;2023-04-01T14:06:17;14.40;99.90
23114;DHT22;11726;50.122;8.832;2023-04-01T14:08:55;14.70;99.90
23114;DHT22;11726;50.122;8.832;2023-04-01T14:14:52;15.20;99.90
23114;DHT22;11726;50.122;8.832;2023-04-01T14:17:47;15.20;99.90
23114;DHT22;11726;50.122;8.832;2023-04-01T14:23:13;15.20;99.90
23114;DHT22;11726;50.122;8.832;2023-04-01T14:26:09;15.40;99.90
23114;DHT22;11726;50.122;8.832;2023-04-01T14:29:16;15.50;99.90
23114;DHT22;11726;50.122;8.832;2023-04-01T14:31:53;15.90;99.90
23114;DHT22;11726;50.122;8.832;2023-04-01T14:42:53;15.20;99.90
23114;DHT22;11726;50.122;8.832;2023-04-01T14:50:55;14.70;99.90
23114;DHT22;11726;50.122;8.832;2023-04-01T14:55:58;14.50;99.90
23114;DHT22;11726;50.122;8.832;2023-04-01T14:58:45;14.30;99.90
23114;DHT22;11726;50.122;8.832;2023-04-01T15:01:19;14.40;99.90
23114;DHT22;11726;50.122;8.832;2023-04-01T15:04:00;14.70;99.90
23114;DHT22;11726;50.122;8.832;2023-04-01T15:12:30;15.00;99.90
23114;DHT22;11726;50.122;8.832;2023-04-01T15:15:11;14.70;99.90
23114;DHT22;11726;50.122;8.832;2023-04-01T15:18:08;14.60;99.90
23114;DHT22;11726;50.122;8.832;2023-04-01T15:21:10;14.60;99.90
23114;DHT22;11726;50.122;8.832;2023-04-01T15:32:19;14.20;99.90
23114;DHT22;11726;50.122;8.832;2023-04-01T15:35:18;13.90;99.90
23114;DHT22;11726;50.122;8.832;2023-04-01T15:40:59;13.80;99.90
23114;DHT22;11726;50.122;8.832;2023-04-01T15:54:46;13.30;99.90
23114;DHT22;11726;50.122;8.832;2023-04-01T15:57:23;13.20;99.90
23114;DHT22;11726;50.122;8.832;2023-04-01T16:00:27;13.10;99.90
23114;DHT22;11726;50.122;8.832;2023-04-01T16:03:17;13.10;99.90
23114;DHT22;11726;50.122;8.832;2023-04-01T16:19:55;12.70;99.90
23114;DHT22;11726;50.122;8.832;2023-04-01T16:27:54;12.60;99.90
23114;DHT22;11726;50.122;8.832;2023-04-01T16:30:35;12.60;99.90
23114;DHT22;11726;50.122;8.832;2023-04-01T16:39:11;12.50;99.90
23114;DHT22;11726;50.122;8.832;2023-04-01T16:45:02;12.50;99.90
23114;DHT22;11726;50.122;8.832;2023-04-01T16:47:54;12.40;99.90
23114;DHT22;11726;50.122;8.832;2023-04-01T16:50:28;12.50;99.90
23114;DHT22;11726;50.122;8.832;2023-04-01T16:53:09;12.50;99.90
23114;DHT22;11726;50.122;8.832;2023-04-01T16:55:51;12.50;99.90
23114;DHT22;11726;50.122;8.832;2023-04-01T16:58:27;12.50;99.90
23114;DHT22;11726;50.122;8.832;2023-04-01T17:01:06;12.50;99.90
23114;DHT22;11726;50.122;8.832;2023-04-01T17:03:44;12.50;99.90
23114;DHT22;11726;50.122;8.832;2023-04-01T17:06:38;12.50;99.90
23114;DHT22;11726;50.122;8.832;2023-04-01T17:09:43;12.40;99.90
23114;DHT22;11726;50.122;8.832;2023-04-01T17:12:25;12.40;99.90
23114;DHT22;11726;50.122;8.832;2023-04-01T17:15:18;12.40;99.90
23114;DHT22;11726;50.122;8.832;2023-04-01T17:18:23;12.30;99.90
23114;DHT22;11726;50.122;8.832;2023-04-01T17:23:48;12.30;99.90
23114;DHT22;11726;50.122;8.832;2023-04-01T17:26:28;12.20;99.90
23114;DHT22;11726;50.122;8.832;2023-04-01T17:34:37;12.10;99.90
23114;DHT22;11726;50.122;8.832;2023-04-01T17:39:53;12.20;99.90
23114;DHT22;11726;50.122;8.832;2023-04-01T17:42:50;12.10;99.90
23114;DHT22;11726;50.122;8.832;2023-04-01T17:48:18;12.00;99.90
23114;DHT22;11726;50.122;8.832;2023-04-01T17:53:44;11.90;99.90
23114;DHT22;11726;50.122;8.832;2023-04-01T17:56:45;11.90;99.90
23114;DHT22;11726;50.122;8.832;2023-04-01T17:59:22;11.90;99.90
23114;DHT22;11726;50.122;8.832;2023-04-01T18:02:20;11.80;99.90
23114;DHT22;11726;50.122;8.832;2023-04-01T18:08:16;11.80;99.90
23114;DHT22;11726;50.122;8.832;2023-04-01T18:10:57;11.70;99.90
23114;DHT22;11726;50.122;8.832;2023-04-01T18:19:50;11.70;99.90
23114;DHT22;11726;50.122;8.832;2023-04-01T18:25:40;11.60;99.90
23114;DHT22;11726;50.122;8.832;2023-04-01T18:28:16;11.60;99.90
23114;DHT22;11726;50.122;8.832;2023-04-01T18:30:54;11.60;99.90
23114;DHT22;11726;50.122;8.832;2023-04-01T18:36:37;11.50;99.90
23114;DHT22;11726;50.122;8.832;2023-04-01T18:39:22;11.50;99.90
23114;DHT22;11726;50.122;8.832;2023-04-01T18:44:52;11.60;99.90
23114;DHT22;11726;50.122;8.832;2023-04-01T18:53:31;11.40;99.90
23114;DHT22;11726;50.122;8.832;2023-04-01T18:56:05;11.40;99.90
23114;DHT22;11726;50.122;8.832;2023-04-01T18:58:59;11.40;99.90
23114;DHT22;11726;50.122;8.832;2023-04-01T19:02:14;11.40;99.90
23114;DHT22;11726;50.122;8.832;2023-04-01T19:04:50;11.40;99.90
23114;DHT22;11726;50.122;8.832;2023-04-01T19:07:41;11.40;99.90
23114;DHT22;11726;50.122;8.832;2023-04-01T19:10:22;11.30;99.90
23114;DHT22;11726;50.122;8.832;2023-04-01T19:15:57;11.30;99.90
23114;DHT22;11726;50.122;8.832;2023-04-01T19:24:15;11.20;99.90
23114;DHT22;11726;50.122;8.832;2023-04-01T19:29:42;11.30;99.90
23114;DHT22;11726;50.122;8.832;2023-04-01T19:32:46;11.20;99.90
23114;DHT22;11726;50.122;8.832;2023-04-01T19:35:36;11.20;99.90
23114;DHT22;11726;50.122;8.832;2023-04-01T19:43:48;11.20;99.90
23114;DHT22;11726;50.122;8.832;2023-04-01T19:52:19;11.20;99.90
23114;DHT22;11726;50.122;8.832;2023-04-01T20:06:28;11.00;99.90
23114;DHT22;11726;50.122;8.832;2023-04-01T20:14:47;11.00;99.90
23114;DHT22;11726;50.122;8.832;2023-04-01T20:17:32;11.00;99.90
23114;DHT22;11726;50.122;8.832;2023-04-01T20:25:16;10.90;99.90
23114;DHT22;11726;50.122;8.832;2023-04-01T20:36:18;10.80;99.90
23114;DHT22;11726;50.122;8.832;2023-04-01T20:42:02;10.80;99.90
23114;DHT22;11726;50.122;8.832;2023-04-01T20:45:04;10.80;99.90
23114;DHT22;11726;50.122;8.832;2023-04-01T20:51:06;10.80;99.90
23114;DHT22;11726;50.122;8.832;2023-04-01T20:56:42;10.80;99.90
23114;DHT22;11726;50.122;8.832;2023-04-01T20:59:34;10.80;99.90
23114;DHT22;11726;50.122;8.832;2023-04-01T21:07:40;10.80;99.90
23114;DHT22;11726;50.122;8.832;2023-04-01T21:10:25;10.80;99.90
23114;DHT22;11726;50.122;8.832;2023-04-01T21:22:27;10.80;99.90
23114;DHT22;11726;50.122;8.832;2023-04-01T21:25:28;10.80;99.90
23114;DHT22;11726;50.122;8.832;2023-04-01T21:28:25;10.70;99.90
23114;DHT22;11726;50.122;8.832;2023-04-01T21:31:00;10.70;99.90
23114;DHT22;11726;50.122;8.832;2023-04-01T21:33:54;10.60;99.90
23114;DHT22;11726;50.122;8.832;2023-04-01T21:44:58;10.70;99.90
23114;DHT22;11726;50.122;8.832;2023-04-01T21:50:47;10.60;99.90
23114;DHT22;11726;50.122;8.832;2023-04-01T21:59:44;10.40;99.90
23114;DHT22;11726;50.122;8.832;2023-04-01T22:02:30;10.30;99.90
23114;DHT22;11726;50.122;8.832;2023-04-01T22:05:13;10.40;99.90
23114;DHT22;11726;50.122;8.832;2023-04-01T22:07:52;10.30;99.90
23114;DHT22;11726;50.122;8.832;2023-04-01T22:10:48;10.30;99.90
23114;DHT22;11726;50.122;8.832;2023-04-01T22:13:26;10.30;99.90
23114;DHT22;11726;50.122;8.832;2023-04-01T22:16:08;10.20;99.90
23114;DHT22;11726;50.122;8.832;2023-04-01T22:19:27;10.30;99.90
23114;DHT22;11726;50.122;8.832;2023-04-01T22:21:38;10.30;99.90
23114;DHT22;11726;50.122;8.832;2023-04-01T22:24:18;10.30;99.90
23114;DHT22;11726;50.122;8.832;2023-04-01T22:26:58;10.30;99.90
23114;DHT22;11726;50.122;8.832;2023-04-01T22:29:35;10.30;99.90
23114;DHT22;11726;50.122;8.832;2023-04-01T22:32:25;10.30;99.90
23114;DHT22;11726;50.122;8.832;2023-04-01T22:40:23;10.40;99.90
23114;DHT22;11726;50.122;8.832;2023-04-01T22:43:01;10.40;99.90
23114;DHT22;11726;50.122;8.832;2023-04-01T22:48:29;10.40;99.90
23114;DHT22;11726;50.122;8.832;2023-04-01T22:53:57;10.30;99.90
23114;DHT22;11726;50.122;8.832;2023-04-01T22:57:03;10.30;99.90
23114;DHT22;11726;50.122;8.832;2023-04-01T22:59:54;10.40;99.90
23114;DHT22;11726;50.122;8.832;2023-04-01T23:02:28;10.30;99.90
23114;DHT22;11726;50.122;8.832;2023-04-01T23:04:59;10.30;99.90
23114;DHT22;11726;50.122;8.832;2023-04-01T23:07:56;10.30;99.90
23114;DHT22;11726;50.122;8.832;2023-04-01T23:10:59;10.30;99.90
23114;DHT22;11726;50.122;8.832;2023-04-01T23:13:38;10.30;99.90
23114;DHT22;11726;50.122;8.832;2023-04-01T23:16:06;10.40;99.90
23114;DHT22;11726;50.122;8.832;2023-04-01T23:26:29;10.30;99.90
23114;DHT22;11726;50.122;8.832;2023-04-01T23:28:57;10.20;99.90
23114;DHT22;11726;50.122;8.832;2023-04-01T23:31:31;10.30;99.90
23114;DHT22;11726;50.122;8.832;2023-04-01T23:34:01;10.20;99.90
23114;DHT22;11726;50.122;8.832;2023-04-01T23:36:30;10.20;99.90
23114;DHT22;11726;50.122;8.832;2023-04-01T23:39:06;10.20;99.90
23114;DHT22;11726;50.122;8.832;2023-04-01T23:41:41;10.20;99.90
23114;DHT22;11726;50.122;8.832;2023-04-01T23:44:11;10.20;99.90
23114;DHT22;11726;50.122;8.832;2023-04-01T23:46:40;10.20;99.90
23114;DHT22;11726;50.122;8.832;2023-04-01T23:49:17;10.10;99.90
23114;DHT22;11726;50.122;8.832;2023-04-01T23:51:59;10.20;99.90
23114;DHT22;11726;50.122;8.832;2023-04-01T23:54:32;10.20;99.90
23114;DHT22;11726;50.122;8.832;2023-04-01T23:57:04;10.20;99.90
23114;DHT22;11726;50.122;8.832;2023-04-01T23:59:36;10.10;99.90
